KLM44M ENBR-EHAM
Flight info
| Callsign | KLM44M |
|---|---|
| Flight time | N/A |
| Altitude | 34000 |
| Route | TUXIL DCT ZOL DCT ATNAK DCT TIPAN DCT WECOW DCT LARDI DCT TOPPA |
| Aircraft | A333/H-SDE3GHIJ2J3J5M1RVWXY/LB2D1 |
Departure
| Time | N/A |
|---|---|
| Airport | Bergen Airport, Flesland (ENBR) |
Arrival
| Time | 2026-04-30 15:03 |
|---|---|
| Airport | Amsterdam Airport Schiphol (EHAM) |
| Time | Latitude | Longitude | Altitude | Speed | Heading |
|---|---|---|---|---|---|
| 2026-04-30 14:29 | 54.79242 | 4.44482 | 34440 ft | 440 kts | 188° |
| 2026-04-30 14:29 | 54.73245 | 4.43060 | 34444 ft | 453 kts | 188° |
| 2026-04-30 14:30 | 54.63575 | 4.40773 | 34439 ft | 470 kts | 188° |
| 2026-04-30 14:31 | 54.57350 | 4.37494 | 34436 ft | 470 kts | 205° |
| 2026-04-30 14:31 | 54.48610 | 4.29846 | 34429 ft | 470 kts | 208° |
| 2026-04-30 14:32 | 54.39957 | 4.21873 | 34424 ft | 466 kts | 207° |
| 2026-04-30 14:33 | 54.34228 | 4.16676 | 34413 ft | 466 kts | 207° |
| 2026-04-30 14:33 | 54.25569 | 4.08901 | 34412 ft | 466 kts | 206° |
| 2026-04-30 14:34 | 54.19831 | 4.03773 | 34412 ft | 466 kts | 207° |
| 2026-04-30 14:34 | 54.14077 | 3.98644 | 34402 ft | 466 kts | 207° |
| 2026-04-30 14:35 | 54.05279 | 3.90830 | 34397 ft | 467 kts | 206° |
| 2026-04-30 14:36 | 53.99513 | 3.85728 | 34395 ft | 467 kts | 207° |
| 2026-04-30 14:36 | 53.93706 | 3.80606 | 34332 ft | 467 kts | 206° |
| 2026-04-30 14:36 | 53.90850 | 3.78094 | 34054 ft | 465 kts | 206° |
| 2026-04-30 14:37 | 53.87958 | 3.75554 | 33781 ft | 463 kts | 206° |
| 2026-04-30 14:37 | 53.85105 | 3.73053 | 33523 ft | 461 kts | 205° |
| 2026-04-30 14:37 | 53.82267 | 3.70572 | 33246 ft | 458 kts | 205° |
| 2026-04-30 14:37 | 53.79397 | 3.68064 | 32965 ft | 456 kts | 206° |
| 2026-04-30 14:38 | 53.76569 | 3.65593 | 32703 ft | 454 kts | 206° |
| 2026-04-30 14:38 | 53.73715 | 3.63106 | 32430 ft | 450 kts | 206° |
| 2026-04-30 14:38 | 53.71013 | 3.60754 | 31817 ft | 450 kts | 205° |
| 2026-04-30 14:38 | 53.68257 | 3.58358 | 31083 ft | 452 kts | 205° |
| 2026-04-30 14:39 | 53.65405 | 3.55886 | 30221 ft | 456 kts | 206° |
| 2026-04-30 14:39 | 53.62520 | 3.53756 | 29635 ft | 450 kts | 197° |
| 2026-04-30 14:39 | 53.59497 | 3.52615 | 29072 ft | 442 kts | 184° |
| 2026-04-30 14:40 | 53.53476 | 3.53143 | 27901 ft | 421 kts | 171° |
| 2026-04-30 14:40 | 53.50633 | 3.53773 | 27373 ft | 406 kts | 171° |
| 2026-04-30 14:40 | 53.47849 | 3.54408 | 26840 ft | 401 kts | 171° |
| 2026-04-30 14:40 | 53.45086 | 3.55037 | 26309 ft | 399 kts | 171° |
| 2026-04-30 14:41 | 53.42327 | 3.55662 | 25781 ft | 396 kts | 170° |
| 2026-04-30 14:41 | 53.39617 | 3.56324 | 25458 ft | 394 kts | 169° |
| 2026-04-30 14:41 | 53.36874 | 3.57108 | 25386 ft | 393 kts | 168° |
| 2026-04-30 14:41 | 53.34193 | 3.57896 | 25382 ft | 392 kts | 168° |
| 2026-04-30 14:42 | 53.31508 | 3.58685 | 25375 ft | 391 kts | 168° |
| 2026-04-30 14:42 | 53.28810 | 3.59475 | 25377 ft | 391 kts | 168° |
| 2026-04-30 14:42 | 53.26158 | 3.60249 | 25152 ft | 384 kts | 168° |
| 2026-04-30 14:42 | 53.23530 | 3.61025 | 24354 ft | 380 kts | 166° |
| 2026-04-30 14:43 | 53.20958 | 3.62124 | 23566 ft | 379 kts | 162° |
| 2026-04-30 14:43 | 53.18452 | 3.63347 | 23041 ft | 380 kts | 161° |
| 2026-04-30 14:43 | 53.15879 | 3.64638 | 22697 ft | 364 kts | 161° |
| 2026-04-30 14:43 | 53.13541 | 3.65821 | 22358 ft | 346 kts | 160° |
| 2026-04-30 14:44 | 53.11280 | 3.66972 | 21833 ft | 334 kts | 160° |
| 2026-04-30 14:44 | 53.09084 | 3.68096 | 21186 ft | 328 kts | 160° |
| 2026-04-30 14:44 | 53.06913 | 3.69208 | 20621 ft | 323 kts | 160° |
| 2026-04-30 14:44 | 53.05505 | 3.69931 | 20328 ft | 322 kts | 160° |
| 2026-04-30 14:45 | 53.03339 | 3.71041 | 19869 ft | 319 kts | 160° |
| 2026-04-30 14:45 | 53.01234 | 3.72118 | 19417 ft | 315 kts | 160° |
| 2026-04-30 14:45 | 52.99044 | 3.73238 | 18950 ft | 312 kts | 160° |
| 2026-04-30 14:45 | 52.97068 | 3.74247 | 18511 ft | 310 kts | 159° |
| 2026-04-30 14:46 | 52.95007 | 3.75299 | 18023 ft | 307 kts | 159° |
| 2026-04-30 14:46 | 52.93039 | 3.76302 | 17618 ft | 306 kts | 159° |
| 2026-04-30 14:46 | 52.90906 | 3.77389 | 17153 ft | 304 kts | 159° |
| 2026-04-30 14:46 | 52.88881 | 3.78419 | 16709 ft | 302 kts | 159° |
| 2026-04-30 14:47 | 52.87009 | 3.79370 | 16307 ft | 300 kts | 159° |
| 2026-04-30 14:47 | 52.84848 | 3.80467 | 15848 ft | 298 kts | 159° |
| 2026-04-30 14:47 | 52.82839 | 3.81486 | 15401 ft | 296 kts | 159° |
| 2026-04-30 14:47 | 52.80875 | 3.82481 | 15037 ft | 295 kts | 159° |
| 2026-04-30 14:48 | 52.78883 | 3.83490 | 14620 ft | 293 kts | 159° |
| 2026-04-30 14:48 | 52.76908 | 3.84489 | 14169 ft | 291 kts | 159° |
| 2026-04-30 14:48 | 52.74981 | 3.85462 | 13693 ft | 289 kts | 159° |
| 2026-04-30 14:48 | 52.73066 | 3.86429 | 13263 ft | 287 kts | 159° |
| 2026-04-30 14:49 | 52.71152 | 3.87394 | 12823 ft | 284 kts | 159° |
| 2026-04-30 14:49 | 52.69273 | 3.88341 | 12390 ft | 282 kts | 159° |
| 2026-04-30 14:49 | 52.67374 | 3.89297 | 11953 ft | 281 kts | 159° |
| 2026-04-30 14:49 | 52.65518 | 3.90230 | 11590 ft | 278 kts | 159° |
| 2026-04-30 14:50 | 52.61871 | 3.92065 | 11427 ft | 277 kts | 158° |
| 2026-04-30 14:50 | 52.60083 | 3.93391 | 11335 ft | 273 kts | 146° |
| 2026-04-30 14:51 | 52.56977 | 3.96890 | 11194 ft | 272 kts | 142° |
| 2026-04-30 14:51 | 52.55417 | 3.98710 | 11124 ft | 271 kts | 142° |
| 2026-04-30 14:51 | 52.52341 | 4.02295 | 10981 ft | 271 kts | 142° |
| 2026-04-30 14:52 | 52.50819 | 4.04066 | 10909 ft | 271 kts | 142° |
| 2026-04-30 14:52 | 52.47683 | 4.07716 | 10460 ft | 270 kts | 142° |
| 2026-04-30 14:52 | 52.46160 | 4.09493 | 10052 ft | 268 kts | 142° |
| 2026-04-30 14:53 | 52.43164 | 4.13003 | 9178 ft | 264 kts | 142° |
| 2026-04-30 14:53 | 52.41677 | 4.14755 | 8746 ft | 262 kts | 142° |
| 2026-04-30 14:54 | 52.38654 | 4.18330 | 7863 ft | 257 kts | 142° |
| 2026-04-30 14:54 | 52.35783 | 4.21741 | 7039 ft | 253 kts | 142° |
| 2026-04-30 14:55 | 52.33437 | 4.24543 | 6345 ft | 249 kts | 142° |
| 2026-04-30 14:55 | 52.31999 | 4.26270 | 5900 ft | 247 kts | 142° |
| 2026-04-30 14:55 | 52.28839 | 4.30092 | 4919 ft | 243 kts | 142° |
| 2026-04-30 14:56 | 52.26175 | 4.33331 | 4036 ft | 231 kts | 142° |
| 2026-04-30 14:56 | 52.24343 | 4.35563 | 3426 ft | 216 kts | 142° |
| 2026-04-30 14:57 | 52.22821 | 4.37362 | 2871 ft | 209 kts | 141° |
| 2026-04-30 14:57 | 52.20962 | 4.40742 | 2079 ft | 201 kts | 102° |
| 2026-04-30 14:58 | 52.20808 | 4.45159 | 1987 ft | 191 kts | 92° |
| 2026-04-30 14:58 | 52.20787 | 4.47320 | 1818 ft | 188 kts | 92° |
| 2026-04-30 14:58 | 52.20772 | 4.51566 | 1695 ft | 187 kts | 83° |
| 2026-04-30 14:59 | 52.22077 | 4.55276 | 1679 ft | 173 kts | 59° |
| 2026-04-30 15:00 | 52.23692 | 4.60320 | 1320 ft | 157 kts | 65° |
| 2026-04-30 15:00 | 52.24767 | 4.63103 | 978 ft | 128 kts | 63° |
| 2026-04-30 15:01 | 52.25728 | 4.65373 | 696 ft | 119 kts | 61° |
| 2026-04-30 15:01 | 52.26031 | 4.66121 | 731 ft | 119 kts | 66° |
| 2026-04-30 15:01 | 52.27060 | 4.68872 | 464 ft | 124 kts | 63° |
| 2026-04-30 15:02 | 52.27516 | 4.70047 | 398 ft | 123 kts | 64° |
| 2026-04-30 15:02 | 52.27953 | 4.71229 | 283 ft | 121 kts | 63° |
| 2026-04-30 15:03 | 52.29278 | 4.74686 | 30 ft | 105 kts | 59° |
| 2026-04-30 15:03 | 52.29621 | 4.75343 | 24 ft | 0 kts | 348° |
| 2026-04-30 15:04 | 52.29635 | 4.75338 | 24 ft | 2 kts | 348° |
| 2026-04-30 15:04 | 52.29773 | 4.75354 | 23 ft | 12 kts | 75° |
| 2026-04-30 15:05 | 52.29920 | 4.75803 | 17 ft | 21 kts | 59° |
| 2026-04-30 15:06 | 52.30081 | 4.76219 | 16 ft | 23 kts | 58° |
| 2026-04-30 15:06 | 52.30262 | 4.76686 | 16 ft | 26 kts | 58° |
| 2026-04-30 15:07 | 52.30466 | 4.77220 | 15 ft | 27 kts | 58° |
| 2026-04-30 15:07 | 52.30712 | 4.77596 | 17 ft | 24 kts | 6° |
| 2026-04-30 15:08 | 52.30996 | 4.77595 | 16 ft | 14 kts | 333° |
| 2026-04-30 15:08 | 52.31022 | 4.77369 | 12 ft | 7 kts | 185° |
| 2026-04-30 15:09 | 52.31019 | 4.77369 | 12 ft | 0 kts | 185° |